sensor_id;sensor_type;location;lat;lon;timestamp;pressure;altitude;pressure_sealevel;temperature;humidity
39699;BME280;25372;50.582;12.250;2023-04-15T00:03:04;98634.22;;;5.28;90.88
39699;BME280;25372;50.582;12.250;2023-04-15T00:13:25;98641.97;;;5.15;90.90
39699;BME280;25372;50.582;12.250;2023-04-15T00:23:47;98631.63;;;5.13;90.89
39699;BME280;25372;50.582;12.250;2023-04-15T00:34:12;98628.03;;;5.16;91.59
39699;BME280;25372;50.582;12.250;2023-04-15T00:44:37;98625.78;;;5.24;91.36
39699;BME280;25372;50.582;12.250;2023-04-15T00:54:58;98622.53;;;5.21;91.13
39699;BME280;25372;50.582;12.250;2023-04-15T01:05:20;98611.34;;;5.18;91.08
39699;BME280;25372;50.582;12.250;2023-04-15T01:15:42;98595.66;;;5.20;90.96
39699;BME280;25372;50.582;12.250;2023-04-15T01:26:04;98597.53;;;5.18;90.65
39699;BME280;25372;50.582;12.250;2023-04-15T01:36:26;98594.66;;;5.23;90.85
39699;BME280;25372;50.582;12.250;2023-04-15T01:46:49;98579.97;;;5.22;91.04
39699;BME280;25372;50.582;12.250;2023-04-15T01:57:11;98574.84;;;5.20;91.22
39699;BME280;25372;50.582;12.250;2023-04-15T02:07:35;98574.19;;;5.16;91.06
39699;BME280;25372;50.582;12.250;2023-04-15T02:17:57;98565.16;;;5.22;91.42
39699;BME280;25372;50.582;12.250;2023-04-15T02:28:22;98569.16;;;5.28;91.29
39699;BME280;25372;50.582;12.250;2023-04-15T02:38:44;98558.94;;;5.25;91.32
39699;BME280;25372;50.582;12.250;2023-04-15T02:49:09;98553.72;;;5.25;91.29
39699;BME280;25372;50.582;12.250;2023-04-15T02:59:32;98561.91;;;5.33;90.99
39699;BME280;25372;50.582;12.250;2023-04-15T03:09:55;98559.38;;;5.31;90.88
39699;BME280;25372;50.582;12.250;2023-04-15T03:20:18;98545.63;;;5.29;90.85
39699;BME280;25372;50.582;12.250;2023-04-15T03:30:43;98542.31;;;5.27;91.12
39699;BME280;25372;50.582;12.250;2023-04-15T03:41:06;98532.63;;;5.29;91.57
39699;BME280;25372;50.582;12.250;2023-04-15T03:51:30;98520.34;;;5.31;91.26
39699;BME280;25372;50.582;12.250;2023-04-15T04:01:52;98518.59;;;5.32;91.37
39699;BME280;25372;50.582;12.250;2023-04-15T04:12:16;98515.41;;;5.27;91.46
39699;BME280;25372;50.582;12.250;2023-04-15T04:22:38;98528.34;;;5.28;91.82
39699;BME280;25372;50.582;12.250;2023-04-15T04:33:02;98515.22;;;5.30;91.64
39699;BME280;25372;50.582;12.250;2023-04-15T04:43:24;98532.06;;;5.39;91.19
39699;BME280;25372;50.582;12.250;2023-04-15T04:53:48;98535.19;;;5.44;91.38
39699;BME280;25372;50.582;12.250;2023-04-15T05:04:10;98538.28;;;5.36;91.58
39699;BME280;25372;50.582;12.250;2023-04-15T05:14:33;98543.16;;;5.55;91.44
39699;BME280;25372;50.582;12.250;2023-04-15T05:24:56;98554.25;;;5.44;92.22
39699;BME280;25372;50.582;12.250;2023-04-15T05:35:19;98547.81;;;5.50;92.22
39699;BME280;25372;50.582;12.250;2023-04-15T05:45:42;98560.28;;;5.59;91.74
39699;BME280;25372;50.582;12.250;2023-04-15T05:56:06;98567.09;;;5.48;91.57
39699;BME280;25372;50.582;12.250;2023-04-15T06:06:28;98578.63;;;5.43;91.50
39699;BME280;25372;50.582;12.250;2023-04-15T06:16:52;98577.84;;;5.56;91.85
39699;BME280;25372;50.582;12.250;2023-04-15T06:27:14;98589.75;;;5.60;91.53
39699;BME280;25372;50.582;12.250;2023-04-15T06:37:37;98604.06;;;5.53;91.15
39699;BME280;25372;50.582;12.250;2023-04-15T06:47:59;98597.50;;;5.74;91.84
39699;BME280;25372;50.582;12.250;2023-04-15T06:58:23;98614.91;;;6.16;90.90
39699;BME280;25372;50.582;12.250;2023-04-15T07:08:45;98626.69;;;6.36;90.09
39699;BME280;25372;50.582;12.250;2023-04-15T07:19:08;98624.44;;;6.30;89.73
39699;BME280;25372;50.582;12.250;2023-04-15T07:29:31;98642.78;;;6.15;89.85
39699;BME280;25372;50.582;12.250;2023-04-15T07:39:54;98638.19;;;6.60;89.30
39699;BME280;25372;50.582;12.250;2023-04-15T07:50:17;98652.09;;;6.86;87.43
39699;BME280;25372;50.582;12.250;2023-04-15T08:00:40;98655.97;;;7.19;88.12
39699;BME280;25372;50.582;12.250;2023-04-15T08:11:02;98669.84;;;7.96;85.22
39699;BME280;25372;50.582;12.250;2023-04-15T08:21:26;98681.16;;;8.21;83.36
39699;BME280;25372;50.582;12.250;2023-04-15T08:31:50;98677.38;;;9.21;82.88
39699;BME280;25372;50.582;12.250;2023-04-15T08:42:16;98683.56;;;9.20;80.43
39699;BME280;25372;50.582;12.250;2023-04-15T08:52:40;98695.63;;;8.87;80.73
39699;BME280;25372;50.582;12.250;2023-04-15T09:03:05;98698.50;;;8.95;79.40
39699;BME280;25372;50.582;12.250;2023-04-15T09:13:27;98706.69;;;9.60;79.59
39699;BME280;25372;50.582;12.250;2023-04-15T09:23:58;98713.31;;;10.21;73.90
39699;BME280;25372;50.582;12.250;2023-04-15T09:34:20;98721.69;;;9.81;73.95
39699;BME280;25372;50.582;12.250;2023-04-15T09:44:43;98738.28;;;9.59;78.04
39699;BME280;25372;50.582;12.250;2023-04-15T09:55:06;98761.09;;;8.62;79.53
39699;BME280;25372;50.582;12.250;2023-04-15T10:05:30;98766.88;;;8.42;78.04
39699;BME280;25372;50.582;12.250;2023-04-15T10:15:56;98764.38;;;8.40;77.64
39699;BME280;25372;50.582;12.250;2023-04-15T10:26:20;98785.50;;;8.00;79.01
39699;BME280;25372;50.582;12.250;2023-04-15T10:36:42;98792.88;;;8.32;76.90
39699;BME280;25372;50.582;12.250;2023-04-15T10:47:09;98798.38;;;8.40;78.87
39699;BME280;25372;50.582;12.250;2023-04-15T10:57:38;98799.00;;;8.57;77.52
39699;BME280;25372;50.582;12.250;2023-04-15T11:08:01;98801.53;;;9.18;75.31
39699;BME280;25372;50.582;12.250;2023-04-15T11:18:25;98816.34;;;9.31;74.91
39699;BME280;25372;50.582;12.250;2023-04-15T11:28:49;98827.16;;;9.26;74.89
39699;BME280;25372;50.582;12.250;2023-04-15T11:39:11;98845.41;;;9.75;74.21
39699;BME280;25372;50.582;12.250;2023-04-15T11:49:36;98839.09;;;9.30;71.93
39699;BME280;25372;50.582;12.250;2023-04-15T11:59:59;98853.56;;;9.47;73.47
39699;BME280;25372;50.582;12.250;2023-04-15T12:10:23;98860.44;;;9.37;71.31
39699;BME280;25372;50.582;12.250;2023-04-15T12:20:44;98885.44;;;9.41;73.04
39699;BME280;25372;50.582;12.250;2023-04-15T12:31:07;98887.13;;;9.89;70.59
39699;BME280;25372;50.582;12.250;2023-04-15T12:41:28;98900.91;;;9.69;71.41
39699;BME280;25372;50.582;12.250;2023-04-15T12:51:53;98918.13;;;9.48;70.77
39699;BME280;25372;50.582;12.250;2023-04-15T13:02:13;98925.00;;;9.38;69.87
39699;BME280;25372;50.582;12.250;2023-04-15T13:12:36;98936.69;;;9.45;70.54
39699;BME280;25372;50.582;12.250;2023-04-15T13:22:57;98946.72;;;9.51;70.75
39699;BME280;25372;50.582;12.250;2023-04-15T13:33:18;98954.25;;;9.56;71.02
39699;BME280;25372;50.582;12.250;2023-04-15T13:43:39;98953.47;;;10.14;69.56
39699;BME280;25372;50.582;12.250;2023-04-15T13:54:02;98965.59;;;10.51;68.43
39699;BME280;25372;50.582;12.250;2023-04-15T14:04:23;98975.34;;;10.38;66.84
39699;BME280;25372;50.582;12.250;2023-04-15T14:14:45;98982.28;;;9.67;69.12
39699;BME280;25372;50.582;12.250;2023-04-15T14:25:07;99000.19;;;9.98;71.20
39699;BME280;25372;50.582;12.250;2023-04-15T14:35:29;99006.63;;;10.52;66.55
39699;BME280;25372;50.582;12.250;2023-04-15T14:45:50;99009.88;;;11.01;64.76
39699;BME280;25372;50.582;12.250;2023-04-15T14:56:12;99024.78;;;11.24;64.88
39699;BME280;25372;50.582;12.250;2023-04-15T15:06:33;99038.47;;;11.39;62.71
39699;BME280;25372;50.582;12.250;2023-04-15T15:16:55;99037.19;;;10.53;66.64
39699;BME280;25372;50.582;12.250;2023-04-15T15:27:16;99060.34;;;10.59;67.90
39699;BME280;25372;50.582;12.250;2023-04-15T15:37:40;99078.16;;;10.79;68.21
39699;BME280;25372;50.582;12.250;2023-04-15T15:48:01;99087.22;;;10.63;65.17
39699;BME280;25372;50.582;12.250;2023-04-15T15:58:24;99108.44;;;10.24;66.53
39699;BME280;25372;50.582;12.250;2023-04-15T16:08:45;99101.91;;;9.44;68.00
39699;BME280;25372;50.582;12.250;2023-04-15T16:19:07;99114.22;;;9.55;70.19
39699;BME280;25372;50.582;12.250;2023-04-15T16:29:27;99124.53;;;9.58;69.41
39699;BME280;25372;50.582;12.250;2023-04-15T16:39:49;99130.50;;;9.60;68.34
39699;BME280;25372;50.582;12.250;2023-04-15T16:50:10;99156.03;;;9.19;70.33
39699;BME280;25372;50.582;12.250;2023-04-15T17:00:32;99162.91;;;8.81;72.14
39699;BME280;25372;50.582;12.250;2023-04-15T17:10:56;99168.81;;;8.57;73.97
39699;BME280;25372;50.582;12.250;2023-04-15T17:21:18;99179.25;;;8.44;77.02
39699;BME280;25372;50.582;12.250;2023-04-15T17:31:43;99190.13;;;7.96;78.09
39699;BME280;25372;50.582;12.250;2023-04-15T17:42:26;99211.34;;;7.62;81.29
39699;BME280;25372;50.582;12.250;2023-04-15T17:53:07;99231.53;;;7.31;82.28
39699;BME280;25372;50.582;12.250;2023-04-15T18:03:48;99249.75;;;7.17;83.17
39699;BME280;25372;50.582;12.250;2023-04-15T18:14:29;99265.22;;;7.05;84.92
39699;BME280;25372;50.582;12.250;2023-04-15T18:25:11;99274.78;;;6.90;86.47
39699;BME280;25372;50.582;12.250;2023-04-15T18:35:33;99285.19;;;6.60;86.72
39699;BME280;25372;50.582;12.250;2023-04-15T18:45:56;99303.38;;;6.61;86.41
39699;BME280;25372;50.582;12.250;2023-04-15T18:56:17;99300.16;;;6.40;88.35
39699;BME280;25372;50.582;12.250;2023-04-15T19:06:39;99314.56;;;6.47;87.51
39699;BME280;25372;50.582;12.250;2023-04-15T19:17:00;99330.94;;;6.17;88.85
39699;BME280;25372;50.582;12.250;2023-04-15T19:27:22;99343.16;;;5.99;89.71
39699;BME280;25372;50.582;12.250;2023-04-15T19:37:43;99362.97;;;5.85;89.46
39699;BME280;25372;50.582;12.250;2023-04-15T19:48:05;99363.16;;;5.65;90.12
39699;BME280;25372;50.582;12.250;2023-04-15T19:58:26;99368.13;;;5.34;91.06
39699;BME280;25372;50.582;12.250;2023-04-15T20:08:48;99385.97;;;5.42;90.13
39699;BME280;25372;50.582;12.250;2023-04-15T20:19:09;99390.66;;;4.98;91.36
39699;BME280;25372;50.582;12.250;2023-04-15T20:29:31;99404.25;;;4.86;91.26
39699;BME280;25372;50.582;12.250;2023-04-15T20:39:52;99410.97;;;4.72;90.74
39699;BME280;25372;50.582;12.250;2023-04-15T20:50:14;99416.94;;;4.74;91.39
39699;BME280;25372;50.582;12.250;2023-04-15T21:00:35;99426.50;;;4.93;91.90
39699;BME280;25372;50.582;12.250;2023-04-15T21:10:58;99433.00;;;5.02;91.14
39699;BME280;25372;50.582;12.250;2023-04-15T21:21:19;99452.63;;;4.90;91.42
39699;BME280;25372;50.582;12.250;2023-04-15T21:31:41;99467.13;;;4.76;92.39
39699;BME280;25372;50.582;12.250;2023-04-15T21:42:02;99460.72;;;5.03;92.73
39699;BME280;25372;50.582;12.250;2023-04-15T21:52:24;99480.63;;;5.04;92.30
39699;BME280;25372;50.582;12.250;2023-04-15T22:02:45;99491.94;;;5.22;92.17
39699;BME280;25372;50.582;12.250;2023-04-15T22:13:07;99506.53;;;5.44;92.41
39699;BME280;25372;50.582;12.250;2023-04-15T22:23:29;99501.75;;;5.54;91.86
39699;BME280;25372;50.582;12.250;2023-04-15T22:33:51;99514.78;;;5.54;91.80
39699;BME280;25372;50.582;12.250;2023-04-15T22:44:12;99522.94;;;5.46;92.04
39699;BME280;25372;50.582;12.250;2023-04-15T22:54:34;99539.06;;;5.54;92.46
39699;BME280;25372;50.582;12.250;2023-04-15T23:04:55;99537.38;;;5.53;92.34
39699;BME280;25372;50.582;12.250;2023-04-15T23:15:17;99540.94;;;5.70;92.04
39699;BME280;25372;50.582;12.250;2023-04-15T23:25:38;99547.25;;;5.83;91.83
39699;BME280;25372;50.582;12.250;2023-04-15T23:36:00;99554.41;;;5.60;91.89
39699;BME280;25372;50.582;12.250;2023-04-15T23:46:21;99563.59;;;5.31;91.50
39699;BME280;25372;50.582;12.250;2023-04-15T23:56:43;99567.66;;;4.98;91.51
